CYMX/YMX METAR and TAF weather

Enter ICAO airport designator
Station Type Date Time Source
CYMX METAR 2021/07/26 12:40 UTC NOAA

CYMX 261240Z 24005KT 210V280 4SM BR BKN002 OVC004 18/18 A2983 RMK FG1SF5SC2 SLP102 DENSITY ALT 800FT


Station Type Date Time Source
CYMX Decoded METAR 2021/07/26 12:40 UTC NOAA

Montreal / Mirabel, Canada (CYMX) 45-41N 074-02W
Jul 26, 2021 - 08:40 AM EDT / 2021.07.26 1240 UTC
Wind: from the WSW (240 degrees) at 6 MPH (5 KT) (direction variable):0
Visibility: 4 mile(s):0
Sky conditions: overcast
Weather: mist
Temperature: 64 F (18 C)
Dew Point: 64 F (18 C)
Relative Humidity: 100%
Pressure (altimeter): 29.83 in. Hg (1010 hPa)
ob: CYMX 261240Z 24005KT 210V280 4SM BR BKN002 OVC004 18/18 A2983 RMK FG1SF5SC2 SLP102 DENSITY ALT 800FT
cycle: 12

Station Type Date Time Source
CYMX TAF 2021/07/26 12:42 UTC NOAA

TAF CYMX 261138Z 2612/2712 24005KT 3/4SM BR OVC002
BECMG 2612/2614 6SM BR FEW002
FM261500 24008KT P6SM SCT020 BKN050
FM261800 27010G20KT P6SM BKN050 PROB30 2619/2624 VRB15G25KT 2SM TSRA BR BKN040CB
FM270200 27005KT P6SM SCT050
TEMPO 2702/2706 5SM FU
FM270600 VRB03KT P6SM SKC
TEMPO 2706/2711 2SM FU PROB30 2706/2711 3/4SM BR FU VV003
FM271100 VRB03KT P6SM BKN180
RMK NXT FCST BY 261800Z

Example: see airport list